Terminal Aerodrome Forecast
Issued by NWS Twin Cities, MN

Home | Current Version | Previous Version | Text Only | Print | Product List | Glossary On
Versions: 1 2 3 4 5 6 7 8 9 10 11 12 13 14 15 16 17
000
FTUS43 KMPX 230917 AAB
TAFEAU
TAF AMD
KEAU 230917Z 2309/2406 00000KT 1/4SM FG VV002
     FM231200 00000KT 2SM BR BKN004
     FM231400 VRB03KT P6SM SCT006 BKN035
     FM231500 17004KT P6SM BKN250=

USA.gov is the U.S. government's official web portal to all federal, state and local government web resources and services.